createdAt,value
2023-02-24T00:02:00.460Z,57.10
2023-02-24T00:04:29.921Z,102.60
2023-02-24T00:06:57.190Z,397.03
2023-02-24T00:09:27.848Z,231.73
2023-02-24T00:11:57.911Z,64.83
2023-02-24T00:14:28.713Z,78.33
2023-02-24T00:16:59.048Z,78.90
2023-02-24T00:19:29.500Z,79.87
2023-02-24T00:21:56.640Z,97.30
2023-02-24T00:24:23.771Z,175.23
2023-02-24T00:26:59.682Z,156.00
2023-02-24T00:29:29.238Z,238.57
2023-02-24T00:32:01.510Z,155.83
2023-02-24T00:34:33.994Z,132.83
2023-02-24T00:37:02.006Z,189.47
2023-02-24T00:39:30.894Z,130.03
2023-02-24T00:42:04.779Z,222.23
2023-02-24T00:44:38.920Z,136.23
2023-02-24T00:47:07.722Z,166.67
2023-02-24T00:49:36.142Z,166.83
2023-02-24T00:52:05.322Z,347.47
2023-02-24T00:54:36.721Z,249.67
2023-02-24T00:57:08.305Z,250.80
2023-02-24T00:59:36.801Z,254.67
2023-02-24T01:02:07.295Z,449.93
2023-02-24T01:04:37.663Z,799.70
2023-02-24T01:07:11.002Z,265.00
2023-02-24T01:09:39.900Z,368.83
2023-02-24T01:12:30.552Z,229.03
2023-02-24T01:14:57.871Z,233.10
2023-02-24T01:17:25.811Z,307.67
2023-02-24T01:19:53.871Z,193.57
2023-02-24T01:22:23.990Z,319.13
2023-02-24T01:24:52.338Z,266.50
2023-02-24T01:27:19.771Z,327.07
2023-02-24T01:29:48.477Z,404.73
2023-02-24T01:32:20.937Z,245.33
2023-02-24T01:34:52.162Z,303.60
2023-02-24T01:37:20.117Z,413.67
2023-02-24T01:39:48.038Z,414.30
2023-02-24T01:42:22.477Z,364.60
2023-02-24T01:44:55.323Z,341.90
2023-02-24T01:47:22.666Z,264.43
2023-02-24T01:49:54.401Z,412.83
2023-02-24T01:52:25.660Z,335.50
2023-02-24T01:55:23.652Z,353.60
2023-02-24T01:57:53.575Z,315.67
2023-02-24T02:00:45.672Z,339.67
2023-02-24T02:03:26.714Z,366.53
2023-02-24T02:06:01.106Z,230.53
2023-02-24T02:08:29.450Z,249.37
2023-02-24T02:11:05.193Z,248.93
2023-02-24T02:13:38.828Z,164.10
2023-02-24T02:16:21.488Z,255.57
2023-02-24T02:19:06.575Z,164.40
2023-02-24T02:21:44.520Z,136.87
2023-02-24T02:24:37.502Z,256.30
2023-02-24T02:27:29.477Z,113.33
2023-02-24T02:30:14.235Z,203.33
2023-02-24T02:33:01.840Z,127.00
2023-02-24T02:35:39.650Z,112.20
2023-02-24T02:38:27.941Z,146.53
2023-02-24T02:41:20.529Z,145.17
2023-02-24T02:43:57.250Z,113.53
2023-02-24T02:46:37.822Z,123.27
2023-02-24T02:49:17.839Z,113.60
2023-02-24T02:51:56.980Z,104.33
2023-02-24T02:54:55.111Z,106.40
2023-02-24T02:57:29.033Z,84.77
2023-02-24T03:00:13.091Z,124.27
2023-02-24T03:02:46.760Z,105.70
2023-02-24T03:05:20.307Z,104.90
2023-02-24T03:07:53.357Z,101.50
2023-02-24T03:10:27.872Z,97.80
2023-02-24T03:12:59.667Z,88.20
2023-02-24T03:15:31.654Z,66.57
2023-02-24T03:18:10.532Z,221.13
2023-02-24T03:21:14.971Z,101.07
2023-02-24T03:23:50.247Z,218.90
2023-02-24T03:26:21.823Z,180.50
2023-02-24T03:29:09.010Z,220.53
2023-02-24T03:31:47.290Z,108.73
2023-02-24T03:34:28.850Z,128.00
2023-02-24T03:36:56.948Z,80.00
2023-02-24T03:39:24.698Z,67.67
2023-02-24T03:42:27.520Z,114.73
2023-02-24T03:44:58.516Z,96.40
2023-02-24T03:47:26.699Z,111.40
2023-02-24T03:49:54.953Z,83.20
2023-02-24T03:52:49.033Z,94.80
2023-02-24T03:55:38.622Z,116.87
2023-02-24T03:58:15.477Z,103.70
2023-02-24T04:00:58.496Z,389.03
2023-02-24T04:03:40.672Z,172.87
2023-02-24T04:06:25.632Z,187.83
2023-02-24T04:09:05.595Z,315.23
2023-02-24T04:11:58.414Z,154.20
2023-02-24T04:14:33.665Z,132.23
2023-02-24T04:17:09.088Z,153.53
2023-02-24T04:19:42.791Z,179.27
2023-02-24T04:22:15.768Z,251.67
2023-02-24T04:24:48.999Z,130.70
2023-02-24T04:27:18.524Z,132.20
2023-02-24T04:29:53.494Z,137.63
2023-02-24T04:32:26.259Z,155.47
2023-02-24T04:34:53.489Z,123.40
2023-02-24T04:37:23.609Z,122.37
2023-02-24T04:39:51.151Z,198.63
2023-02-24T04:42:26.602Z,177.47
2023-02-24T04:44:54.073Z,155.00
2023-02-24T04:47:22.354Z,203.37
2023-02-24T04:49:51.064Z,157.30
2023-02-24T04:52:21.987Z,161.80
2023-02-24T04:54:51.206Z,133.37
2023-02-24T04:57:18.320Z,179.23
2023-02-24T04:59:47.049Z,123.00
2023-02-24T05:02:18.196Z,339.20
2023-02-24T05:04:49.767Z,123.90
2023-02-24T05:07:18.277Z,124.03
2023-02-24T05:09:49.301Z,160.73
2023-02-24T05:12:16.330Z,142.67
2023-02-24T05:14:44.111Z,111.73
2023-02-24T05:17:13.910Z,237.60
2023-02-24T05:19:59.996Z,130.30
2023-02-24T05:22:28.982Z,183.50
2023-02-24T05:24:57.767Z,182.17
2023-02-24T05:27:25.998Z,350.73
2023-02-24T05:29:54.735Z,186.13
2023-02-24T05:32:24.436Z,115.10
2023-02-24T05:34:55.717Z,115.37
2023-02-24T05:37:22.687Z,124.37
2023-02-24T05:39:49.565Z,91.33
2023-02-24T05:42:17.290Z,274.27
2023-02-24T05:44:44.251Z,180.00
2023-02-24T05:47:11.866Z,125.37
2023-02-24T05:49:39.713Z,93.87
2023-02-24T05:52:15.010Z,125.80
2023-02-24T05:54:44.193Z,111.90
2023-02-24T05:57:13.950Z,109.40
2023-02-24T05:59:43.153Z,117.30
2023-02-24T06:02:15.630Z,97.23
2023-02-24T06:04:51.127Z,120.97
2023-02-24T06:07:25.362Z,115.20
2023-02-24T06:09:56.707Z,77.63
2023-02-24T06:12:29.812Z,78.53
2023-02-24T06:15:00.484Z,87.50
2023-02-24T06:17:28.790Z,106.07
2023-02-24T06:19:56.096Z,70.60
2023-02-24T06:22:27.576Z,61.30
2023-02-24T06:24:57.018Z,51.43
2023-02-24T06:27:26.031Z,48.40
2023-02-24T06:29:54.902Z,42.40
2023-02-24T06:32:27.299Z,40.17
2023-02-24T06:34:58.173Z,35.53
2023-02-24T06:37:25.327Z,36.30
2023-02-24T06:39:52.911Z,41.00
2023-02-24T06:42:20.945Z,44.47
2023-02-24T06:44:48.030Z,40.30
2023-02-24T06:47:18.493Z,32.97
2023-02-24T06:49:45.794Z,37.00
2023-02-24T06:52:18.917Z,38.50
2023-02-24T06:54:49.657Z,38.40
2023-02-24T06:57:17.875Z,42.83
2023-02-24T06:59:46.585Z,37.17
2023-02-24T07:02:13.630Z,38.50
2023-02-24T07:04:44.147Z,38.63
2023-02-24T07:07:14.590Z,40.07
2023-02-24T07:09:42.731Z,42.53
2023-02-24T07:12:12.902Z,43.57
2023-02-24T07:14:40.711Z,42.93
2023-02-24T07:17:08.652Z,48.37
2023-02-24T07:19:38.042Z,49.33
2023-02-24T07:22:05.839Z,44.00
2023-02-24T07:24:41.374Z,48.73
2023-02-24T07:27:13.117Z,44.00
2023-02-24T07:29:40.618Z,42.40
2023-02-24T07:32:11.371Z,44.97
2023-02-24T07:34:40.706Z,44.37
2023-02-24T07:37:09.340Z,37.23
2023-02-24T07:39:39.477Z,41.83
2023-02-24T07:42:09.501Z,36.33
2023-02-24T07:44:45.375Z,41.30
2023-02-24T07:47:12.746Z,41.63
2023-02-24T07:49:41.224Z,42.70
2023-02-24T07:52:08.799Z,37.07
2023-02-24T07:54:37.306Z,41.83
2023-02-24T07:57:06.707Z,42.53
2023-02-24T07:59:38.102Z,43.47
2023-02-24T08:02:08.121Z,39.87
2023-02-24T08:04:36.492Z,42.17
2023-02-24T08:07:04.393Z,41.63
2023-02-24T08:09:46.159Z,43.80
2023-02-24T08:12:24.329Z,52.43
2023-02-24T08:14:54.094Z,50.90
2023-02-24T08:17:26.866Z,51.40
2023-02-24T08:20:14.132Z,50.37
2023-02-24T08:22:52.391Z,54.80
2023-02-24T08:25:35.924Z,53.73
2023-02-24T08:28:09.416Z,61.07
2023-02-24T08:30:39.753Z,50.73
2023-02-24T08:33:10.464Z,52.83
2023-02-24T08:35:39.452Z,56.87
2023-02-24T08:38:14.801Z,55.57
2023-02-24T08:40:52.857Z,56.00
2023-02-24T08:43:46.654Z,59.70
2023-02-24T08:46:25.632Z,62.43
2023-02-24T08:49:01.358Z,59.63
2023-02-24T08:51:30.366Z,61.40
2023-02-24T08:54:00.317Z,78.10
2023-02-24T08:56:34.990Z,71.60
2023-02-24T08:59:06.105Z,77.80
2023-02-24T09:01:39.291Z,75.27
2023-02-24T09:04:19.083Z,71.33
2023-02-24T09:06:50.262Z,74.33
2023-02-24T09:09:23.209Z,77.87
2023-02-24T09:11:56.162Z,77.33
2023-02-24T09:14:29.565Z,78.73
2023-02-24T09:17:11.813Z,78.30
2023-02-24T09:19:40.624Z,75.90
2023-02-24T09:22:21.370Z,86.60
2023-02-24T09:24:51.257Z,86.93
2023-02-24T09:27:18.394Z,84.37
2023-02-24T09:29:51.832Z,86.33
2023-02-24T09:32:18.979Z,88.00
2023-02-24T09:34:45.984Z,99.77
2023-02-24T09:37:27.098Z,94.67
2023-02-24T09:39:57.597Z,98.47
2023-02-24T09:42:29.296Z,96.80
2023-02-24T09:45:11.769Z,94.33
2023-02-24T09:47:55.861Z,98.67
2023-02-24T09:51:01.621Z,105.93
2023-02-24T09:53:29.482Z,94.17
2023-02-24T09:56:27.936Z,103.30
2023-02-24T09:59:12.811Z,102.00
2023-02-24T10:01:48.774Z,100.47
2023-02-24T10:04:21.468Z,108.13
2023-02-24T10:06:58.996Z,112.27
2023-02-24T10:09:40.662Z,104.57
2023-02-24T10:12:19.654Z,101.27
2023-02-24T10:15:19.351Z,107.00
2023-02-24T10:17:57.207Z,111.33
2023-02-24T10:20:40.574Z,107.37
2023-02-24T10:23:29.710Z,110.57
2023-02-24T10:26:30.545Z,121.10
2023-02-24T10:29:02.804Z,137.03
2023-02-24T10:31:46.364Z,141.83
2023-02-24T10:34:26.434Z,144.23
2023-02-24T10:36:53.614Z,139.67
2023-02-24T10:39:26.628Z,149.00
2023-02-24T10:41:59.678Z,139.17
2023-02-24T10:44:36.788Z,144.37
2023-02-24T10:47:12.914Z,144.73
2023-02-24T10:49:58.306Z,134.87
2023-02-24T10:52:50.491Z,129.90
2023-02-24T10:55:28.898Z,132.90
2023-02-24T10:58:16.215Z,126.87
2023-02-24T11:00:52.095Z,124.43
2023-02-24T11:03:41.238Z,133.23
2023-02-24T11:06:41.410Z,122.83
2023-02-24T11:09:28.852Z,137.90
2023-02-24T11:12:17.748Z,133.67
2023-02-24T11:15:15.872Z,130.77
2023-02-24T11:17:51.030Z,126.03
2023-02-24T11:20:42.305Z,138.50
2023-02-24T11:23:27.311Z,137.43
2023-02-24T11:26:04.727Z,132.80
2023-02-24T11:28:38.120Z,139.03
2023-02-24T11:31:33.103Z,135.13
2023-02-24T11:34:19.198Z,136.43
2023-02-24T11:36:56.630Z,127.57
2023-02-24T11:39:50.360Z,124.13
2023-02-24T11:42:39.090Z,135.27
2023-02-24T11:45:19.325Z,129.77
2023-02-24T11:47:52.252Z,126.50
2023-02-24T11:50:28.371Z,125.77
2023-02-24T11:52:58.199Z,124.57
2023-02-24T11:55:43.046Z,128.63
2023-02-24T11:58:44.440Z,121.00
2023-02-24T12:01:37.357Z,118.40
2023-02-24T12:04:29.798Z,111.07
2023-02-24T12:06:57.140Z,118.07
2023-02-24T12:09:30.556Z,111.07
2023-02-24T12:12:21.579Z,106.70
2023-02-24T12:14:56.167Z,114.10
2023-02-24T12:17:35.125Z,108.43
2023-02-24T12:20:20.128Z,98.33
2023-02-24T12:22:49.113Z,105.47
2023-02-24T12:25:19.296Z,102.70
2023-02-24T12:28:11.334Z,95.07
2023-02-24T12:30:49.354Z,88.07
2023-02-24T12:33:19.185Z,95.40
2023-02-24T12:36:10.295Z,81.93
2023-02-24T12:39:13.736Z,72.70
2023-02-24T12:41:57.549Z,65.60
2023-02-24T12:44:38.110Z,79.60
2023-02-24T12:47:11.796Z,67.73
2023-02-24T12:50:10.096Z,59.87
2023-02-24T12:52:46.946Z,65.17
2023-02-24T12:55:38.350Z,61.23
2023-02-24T12:58:25.251Z,47.03
2023-02-24T13:01:02.397Z,49.53
2023-02-24T13:03:51.536Z,45.00
2023-02-24T13:06:27.747Z,47.13
2023-02-24T13:09:03.994Z,62.03
2023-02-24T13:11:49.420Z,68.83
2023-02-24T13:14:27.503Z,49.80
2023-02-24T13:17:13.031Z,43.30
2023-02-24T13:19:43.431Z,61.17
2023-02-24T13:22:18.369Z,42.80
2023-02-24T13:24:54.372Z,43.87
2023-02-24T13:27:35.102Z,40.63
2023-02-24T13:30:18.496Z,37.70
2023-02-24T13:32:47.808Z,37.90
2023-02-24T13:35:18.134Z,32.10
2023-02-24T13:37:47.600Z,33.03
2023-02-24T13:40:23.754Z,35.67
2023-02-24T13:43:00.053Z,37.07
2023-02-24T13:45:31.925Z,40.97
2023-02-24T13:48:11.000Z,41.43
2023-02-24T13:50:59.308Z,36.67
2023-02-24T13:53:48.229Z,41.27
2023-02-24T13:56:34.386Z,41.57
2023-02-24T13:59:31.974Z,44.57
2023-02-24T14:02:04.159Z,41.63
2023-02-24T14:04:33.675Z,41.63
2023-02-24T14:07:11.830Z,38.20
2023-02-24T14:09:48.638Z,42.10
2023-02-24T14:12:27.206Z,42.73
2023-02-24T14:14:55.483Z,40.77
2023-02-24T14:17:32.313Z,36.00
2023-02-24T14:20:11.599Z,41.70
2023-02-24T14:22:50.617Z,42.27
2023-02-24T14:25:18.434Z,42.70
2023-02-24T14:27:48.750Z,40.43
2023-02-24T14:30:36.447Z,36.60
2023-02-24T14:33:06.119Z,38.27
2023-02-24T14:35:51.413Z,38.70
2023-02-24T14:38:41.722Z,37.83
2023-02-24T14:41:22.847Z,40.00
2023-02-24T14:43:50.941Z,41.43
2023-02-24T14:46:18.684Z,36.00
2023-02-24T14:48:46.428Z,37.17
2023-02-24T14:51:21.376Z,37.00
2023-02-24T14:53:55.142Z,42.50
2023-02-24T14:56:28.357Z,40.53
2023-02-24T14:59:02.646Z,39.37
2023-02-24T15:01:36.466Z,40.17
2023-02-24T15:04:20.783Z,42.27
2023-02-24T15:06:49.313Z,41.63
2023-02-24T15:09:24.378Z,34.67
2023-02-24T15:11:53.644Z,38.93
2023-02-24T15:14:32.008Z,36.63
2023-02-24T15:17:10.133Z,39.53
2023-02-24T15:19:54.410Z,37.47
2023-02-24T15:22:30.436Z,39.07
2023-02-24T15:25:16.511Z,37.43
2023-02-24T15:27:56.126Z,38.97
2023-02-24T15:30:36.640Z,38.63
2023-02-24T15:33:24.590Z,37.47
2023-02-24T15:35:58.321Z,32.57
2023-02-24T15:38:46.172Z,35.53
2023-02-24T15:41:14.670Z,34.50
2023-02-24T15:43:50.555Z,31.07
2023-02-24T15:46:32.827Z,36.23
2023-02-24T15:49:03.769Z,38.70
2023-02-24T15:51:37.230Z,40.83
2023-02-24T15:54:11.519Z,39.93
2023-02-24T15:56:39.581Z,38.37
2023-02-24T15:59:06.586Z,36.77
2023-02-24T16:01:34.510Z,41.83
2023-02-24T16:04:01.699Z,39.30
2023-02-24T16:06:29.082Z,33.13
2023-02-24T16:08:57.624Z,38.83
2023-02-24T16:11:31.772Z,34.47
2023-02-24T16:14:00.119Z,34.43
2023-02-24T16:16:28.275Z,34.73
2023-02-24T16:18:56.389Z,34.93
2023-02-24T16:21:23.388Z,41.20
2023-02-24T16:23:53.651Z,38.90
2023-02-24T16:26:22.958Z,45.07
2023-02-24T16:28:57.681Z,44.40
2023-02-24T16:31:26.668Z,51.80
2023-02-24T16:33:56.023Z,52.87
2023-02-24T16:36:28.354Z,60.50
2023-02-24T16:38:56.026Z,59.73
2023-02-24T16:41:23.863Z,57.07
2023-02-24T16:43:51.446Z,52.27
2023-02-24T16:46:22.827Z,54.63
2023-02-24T16:48:53.491Z,54.93
2023-02-24T16:51:22.031Z,61.40
2023-02-24T16:53:49.983Z,61.47
2023-02-24T16:56:17.305Z,59.97
2023-02-24T16:58:44.708Z,62.63
2023-02-24T17:01:19.443Z,60.37
2023-02-24T17:03:49.719Z,60.27
2023-02-24T17:06:16.797Z,59.10
2023-02-24T17:08:46.129Z,59.77
2023-02-24T17:11:17.389Z,59.00
2023-02-24T17:13:44.577Z,62.47
2023-02-24T17:16:11.924Z,67.57
2023-02-24T17:18:42.003Z,68.70
2023-02-24T17:21:13.862Z,71.27
2023-02-24T17:23:42.551Z,68.07
2023-02-24T17:26:14.065Z,64.63
2023-02-24T17:28:41.587Z,62.67
2023-02-24T17:31:08.896Z,61.97
2023-02-24T17:33:36.410Z,63.30
2023-02-24T17:36:04.241Z,56.30
2023-02-24T17:38:31.393Z,64.57
2023-02-24T17:40:58.422Z,62.47
2023-02-24T17:43:25.556Z,59.90
2023-02-24T17:45:53.217Z,63.40
2023-02-24T17:48:21.066Z,66.13
2023-02-24T17:50:50.112Z,66.47
2023-02-24T17:53:17.150Z,64.00
2023-02-24T17:56:01.542Z,64.20
2023-02-24T17:58:32.710Z,63.23
2023-02-24T18:01:02.312Z,62.53
2023-02-24T18:03:30.646Z,61.47
2023-02-24T18:06:03.170Z,67.27
2023-02-24T18:08:33.355Z,65.20
2023-02-24T18:11:01.038Z,61.67
2023-02-24T18:13:28.974Z,61.50
2023-02-24T18:15:56.067Z,62.70
2023-02-24T18:18:24.011Z,67.97
2023-02-24T18:20:51.243Z,84.77
2023-02-24T18:23:18.547Z,61.73
2023-02-24T18:25:45.736Z,65.97
2023-02-24T18:28:12.863Z,59.40
2023-02-24T18:30:40.313Z,59.67
2023-02-24T18:33:07.771Z,60.50
2023-02-24T18:35:36.555Z,62.83
2023-02-24T18:38:04.803Z,67.27
2023-02-24T18:40:32.032Z,70.83
2023-02-24T18:42:59.627Z,71.77
2023-02-24T18:45:26.554Z,73.30
2023-02-24T18:47:53.957Z,66.57
2023-02-24T18:50:25.281Z,63.90
2023-02-24T18:52:54.225Z,66.93
2023-02-24T18:55:22.303Z,66.53
2023-02-24T18:57:49.476Z,60.47
2023-02-24T19:00:16.935Z,72.17
2023-02-24T19:02:44.085Z,66.57
2023-02-24T19:05:11.307Z,72.17
2023-02-24T19:07:40.886Z,66.43
2023-02-24T19:10:08.541Z,63.27
2023-02-24T19:12:36.410Z,65.47
2023-02-24T19:15:04.311Z,65.33
2023-02-24T19:17:32.380Z,67.37
2023-02-24T19:19:59.662Z,63.17
2023-02-24T19:22:27.045Z,71.23
2023-02-24T19:24:53.937Z,69.70
2023-02-24T19:27:21.179Z,67.13
2023-02-24T19:29:48.232Z,68.23
2023-02-24T19:32:15.373Z,67.60
2023-02-24T19:34:42.994Z,69.97
2023-02-24T19:37:10.153Z,67.00
2023-02-24T19:39:37.171Z,74.53
2023-02-24T19:42:07.272Z,63.67
2023-02-24T19:44:34.416Z,61.60
2023-02-24T19:47:01.588Z,62.50
2023-02-24T19:49:33.093Z,59.90
2023-02-24T19:52:00.874Z,69.80
2023-02-24T19:54:29.014Z,66.20
2023-02-24T19:56:58.467Z,69.77
2023-02-24T19:59:25.558Z,75.07
2023-02-24T20:01:54.397Z,60.00
2023-02-24T20:04:23.240Z,68.37
2023-02-24T20:06:50.464Z,67.80
2023-02-24T20:09:21.429Z,69.97
2023-02-24T20:11:50.967Z,66.60
2023-02-24T20:14:19.910Z,68.07
2023-02-24T20:16:47.895Z,64.83
2023-02-24T20:19:15.937Z,68.57
2023-02-24T20:21:43.098Z,64.93
2023-02-24T20:24:16.106Z,56.77
2023-02-24T20:26:47.305Z,64.13
2023-02-24T20:29:16.791Z,63.97
2023-02-24T20:31:43.823Z,71.70
2023-02-24T20:34:11.222Z,75.90
2023-02-24T20:36:38.164Z,75.00
2023-02-24T20:39:06.906Z,76.67
2023-02-24T20:41:34.782Z,71.07
2023-02-24T20:44:02.113Z,72.07
2023-02-24T20:46:31.499Z,77.67
2023-02-24T20:49:05.550Z,76.23
2023-02-24T20:51:34.832Z,84.53
2023-02-24T20:54:02.079Z,74.40
2023-02-24T20:56:34.070Z,70.93
2023-02-24T20:59:02.538Z,68.47
2023-02-24T21:01:32.228Z,63.97
2023-02-24T21:03:59.648Z,63.63
2023-02-24T21:06:28.865Z,57.77
2023-02-24T21:08:56.998Z,62.73
2023-02-24T21:11:25.215Z,69.53
2023-02-24T21:13:53.745Z,61.67
2023-02-24T21:16:22.914Z,62.77
2023-02-24T21:18:51.591Z,63.70
2023-02-24T21:21:19.887Z,69.70
2023-02-24T21:23:48.223Z,62.57
2023-02-24T21:26:16.077Z,58.27
2023-02-24T21:28:43.552Z,63.67
2023-02-24T21:31:12.547Z,67.10
2023-02-24T21:33:39.899Z,66.00
2023-02-24T21:36:10.835Z,64.63
2023-02-24T21:38:38.032Z,66.23
2023-02-24T21:41:08.021Z,65.33
2023-02-24T21:43:35.676Z,73.13
2023-02-24T21:46:05.588Z,71.37
2023-02-24T21:48:34.144Z,70.17
2023-02-24T21:51:06.069Z,69.47
2023-02-24T21:53:37.305Z,70.23
2023-02-24T21:56:10.992Z,84.53
2023-02-24T21:58:39.638Z,83.53
2023-02-24T22:01:17.029Z,74.20
2023-02-24T22:03:45.612Z,69.87
2023-02-24T22:06:14.789Z,69.57
2023-02-24T22:08:45.638Z,75.57
2023-02-24T22:11:15.603Z,63.00
2023-02-24T22:13:45.649Z,65.63
2023-02-24T22:16:24.005Z,71.97
2023-02-24T22:18:52.523Z,62.43
2023-02-24T22:21:22.420Z,64.20
2023-02-24T22:23:53.141Z,59.30
2023-02-24T22:26:23.706Z,60.33
2023-02-24T22:28:51.502Z,69.43
2023-02-24T22:31:22.355Z,61.43
2023-02-24T22:33:49.848Z,57.27
2023-02-24T22:36:20.722Z,72.77
2023-02-24T22:38:48.223Z,63.93
2023-02-24T22:41:17.733Z,59.10
2023-02-24T22:43:45.077Z,64.17
2023-02-24T22:46:15.221Z,65.40
2023-02-24T22:48:42.880Z,66.83
2023-02-24T22:51:12.147Z,64.17
2023-02-24T22:53:41.344Z,67.87
2023-02-24T22:56:11.537Z,67.73
2023-02-24T22:58:39.064Z,66.00
2023-02-24T23:01:15.060Z,60.67
2023-02-24T23:03:46.427Z,66.30
2023-02-24T23:06:19.393Z,63.50
2023-02-24T23:08:48.149Z,62.23
2023-02-24T23:11:20.160Z,61.77
2023-02-24T23:13:49.886Z,67.50
2023-02-24T23:16:23.365Z,65.00
2023-02-24T23:18:53.336Z,68.80
2023-02-24T23:21:47.071Z,73.60
2023-02-24T23:24:15.479Z,69.07
2023-02-24T23:26:54.341Z,73.83
2023-02-24T23:29:24.533Z,71.97
2023-02-24T23:31:52.493Z,73.17
2023-02-24T23:34:21.143Z,71.57
2023-02-24T23:36:48.994Z,71.73
2023-02-24T23:39:20.676Z,64.50
2023-02-24T23:41:50.128Z,63.37
2023-02-24T23:44:17.096Z,69.13
2023-02-24T23:46:44.396Z,78.47
2023-02-24T23:49:11.517Z,72.40
2023-02-24T23:51:48.104Z,78.57
2023-02-24T23:54:18.178Z,78.30
2023-02-24T23:56:46.712Z,71.83
2023-02-24T23:59:14.163Z,75.17
